Terminal Aerodrome Forecast
Issued by NWS Charleston, WV

Home | Current Version | Previous Version | Text Only | Print | Product List | Glossary On
Versions: 1 2 3 4 5 6 7 8 9 10 11 12 13 14 15 16 17 18 19 20 21
000
FTUS41 KRLX 301129
TAFBKW
TAF
KBKW 301129Z 3012/0112 VRB03KT P6SM SCT020 BKN050
     FM301500 24008KT P6SM BKN090
     FM301700 25007KT P6SM VCTS BKN050CB
     FM010200 25004KT P6SM VCTS BKN035CB
     FM010500 00000KT P6SM BKN030=

USA.gov is the U.S. government's official web portal to all federal, state and local government web resources and services.